createdAt,value
2018-12-30T00:01:51.528Z,12.63
2018-12-30T00:04:21.169Z,20.67
2018-12-30T00:06:50.654Z,14.63
2018-12-30T00:09:19.860Z,19.30
2018-12-30T00:11:49.096Z,17.33
2018-12-30T00:14:18.336Z,17.53
2018-12-30T00:16:48.013Z,15.87
2018-12-30T00:19:17.148Z,16.20
2018-12-30T00:21:46.760Z,13.23
2018-12-30T00:24:16.027Z,11.23
2018-12-30T00:26:45.705Z,13.97
2018-12-30T00:29:14.957Z,17.87
2018-12-30T00:31:44.203Z,14.40
2018-12-30T00:34:13.437Z,15.73
2018-12-30T00:36:42.693Z,16.60
2018-12-30T00:39:12.248Z,19.33
2018-12-30T00:41:41.399Z,14.27
2018-12-30T00:44:10.606Z,11.47
2018-12-30T00:46:39.823Z,11.33
2018-12-30T00:49:09.056Z,11.83
2018-12-30T00:51:38.305Z,9.10
2018-12-30T00:54:07.412Z,8.77
2018-12-30T00:56:36.621Z,13.00
2018-12-30T00:59:05.810Z,10.97
2018-12-30T01:01:35.045Z,12.43
2018-12-30T01:04:04.299Z,9.93
2018-12-30T01:06:33.855Z,8.50
2018-12-30T01:09:03.433Z,11.43
2018-12-30T01:11:32.680Z,12.80
2018-12-30T01:14:01.891Z,11.67
2018-12-30T01:16:31.127Z,13.10
2018-12-30T01:19:00.466Z,14.23
2018-12-30T01:21:29.678Z,16.77
2018-12-30T01:23:58.939Z,18.30
2018-12-30T01:26:28.214Z,16.47
2018-12-30T01:28:57.460Z,7.70
2018-12-30T01:31:26.616Z,8.77
2018-12-30T01:33:55.953Z,13.83
2018-12-30T01:36:25.164Z,9.53
2018-12-30T01:38:54.443Z,12.67
2018-12-30T01:41:23.744Z,15.50
2018-12-30T01:43:53.097Z,17.13
2018-12-30T01:46:22.387Z,11.37
2018-12-30T01:48:51.513Z,16.80
2018-12-30T01:51:20.670Z,12.27
2018-12-30T01:53:49.892Z,9.47
2018-12-30T01:56:19.056Z,12.30
2018-12-30T01:58:48.623Z,10.93
2018-12-30T02:01:17.860Z,12.27
2018-12-30T02:03:47.147Z,9.70
2018-12-30T02:06:16.280Z,16.53
2018-12-30T02:08:45.467Z,11.73
2018-12-30T02:11:14.922Z,14.40
2018-12-30T02:13:44.116Z,14.27
2018-12-30T02:16:13.299Z,9.23
2018-12-30T02:18:42.579Z,8.23
2018-12-30T02:21:11.783Z,12.60
2018-12-30T02:23:41.323Z,18.27
2018-12-30T02:26:10.521Z,9.73
2018-12-30T02:28:39.721Z,10.03
2018-12-30T02:31:08.869Z,13.80
2018-12-30T02:33:38.069Z,12.37
2018-12-30T02:36:07.588Z,12.27
2018-12-30T02:38:36.767Z,15.47
2018-12-30T02:41:05.904Z,11.37
2018-12-30T02:43:35.126Z,10.00
2018-12-30T02:46:04.362Z,10.77
2018-12-30T02:48:33.546Z,8.97
2018-12-30T02:51:02.752Z,11.67
2018-12-30T02:53:31.907Z,13.60
2018-12-30T02:56:01.140Z,11.70
2018-12-30T02:58:30.409Z,13.13
2018-12-30T03:00:59.579Z,11.53
2018-12-30T03:03:28.770Z,15.63
2018-12-30T03:05:57.963Z,16.40
2018-12-30T03:08:27.097Z,16.47
2018-12-30T03:10:56.613Z,11.60
2018-12-30T03:13:25.753Z,8.57
2018-12-30T03:15:55.038Z,15.23
2018-12-30T03:18:24.228Z,10.50
2018-12-30T03:20:53.418Z,13.60
2018-12-30T03:23:22.590Z,9.00
2018-12-30T03:25:51.801Z,13.53
2018-12-30T03:28:20.990Z,9.63
2018-12-30T03:30:50.128Z,10.67
2018-12-30T03:33:19.386Z,9.90
2018-12-30T03:35:48.567Z,10.93
2018-12-30T03:38:17.739Z,12.57
2018-12-30T03:40:46.864Z,14.27
2018-12-30T03:43:16.026Z,14.77
2018-12-30T03:45:45.168Z,11.87
2018-12-30T03:48:14.311Z,14.30
2018-12-30T03:50:43.456Z,7.37
2018-12-30T03:53:12.646Z,15.77
2018-12-30T03:55:41.811Z,14.80
2018-12-30T03:58:10.931Z,15.43
2018-12-30T04:00:40.073Z,14.00
2018-12-30T04:03:09.207Z,7.93
2018-12-30T04:05:38.365Z,14.27
2018-12-30T04:08:07.607Z,12.10
2018-12-30T04:10:36.833Z,9.40
2018-12-30T04:13:05.982Z,11.73
2018-12-30T04:15:35.092Z,11.07
2018-12-30T04:18:04.248Z,12.30
2018-12-30T04:20:33.390Z,12.10
2018-12-30T04:23:02.577Z,15.77
2018-12-30T04:25:31.832Z,11.53
2018-12-30T04:28:01.059Z,15.50
2018-12-30T04:30:30.237Z,15.40
2018-12-30T04:32:59.387Z,14.60
2018-12-30T04:35:28.591Z,15.33
2018-12-30T04:37:57.799Z,10.40
2018-12-30T04:40:26.967Z,13.30
2018-12-30T04:42:56.209Z,11.10
2018-12-30T04:45:25.387Z,14.17
2018-12-30T04:47:54.725Z,13.60
2018-12-30T04:50:23.887Z,14.47
2018-12-30T04:52:53.170Z,13.57
2018-12-30T04:55:22.323Z,14.30
2018-12-30T04:57:51.460Z,11.93
2018-12-30T05:00:20.586Z,11.03
2018-12-30T05:02:49.773Z,16.80
2018-12-30T05:05:19.002Z,11.87
2018-12-30T05:07:48.176Z,12.93
2018-12-30T05:10:17.362Z,12.27
2018-12-30T05:12:46.556Z,16.40
2018-12-30T05:15:15.716Z,15.60
2018-12-30T05:17:44.894Z,9.60
2018-12-30T05:20:14.073Z,12.90
2018-12-30T05:22:43.205Z,9.07
2018-12-30T05:25:12.385Z,14.93
2018-12-30T05:27:41.562Z,9.43
2018-12-30T05:30:10.704Z,16.07
2018-12-30T05:32:39.939Z,8.53
2018-12-30T05:35:09.080Z,14.20
2018-12-30T05:37:38.212Z,16.80
2018-12-30T05:40:07.343Z,15.60
2018-12-30T05:42:36.521Z,10.87
2018-12-30T05:45:05.813Z,13.43
2018-12-30T05:47:34.938Z,10.27
2018-12-30T05:50:04.205Z,12.80
2018-12-30T05:52:33.343Z,11.17
2018-12-30T05:55:02.511Z,19.37
2018-12-30T05:57:31.696Z,14.00
2018-12-30T06:00:00.824Z,12.03
2018-12-30T06:02:29.957Z,11.57
2018-12-30T06:04:59.120Z,14.93
2018-12-30T06:07:28.262Z,13.53
2018-12-30T06:09:57.389Z,10.83
2018-12-30T06:12:26.577Z,20.43
2018-12-30T06:14:55.827Z,17.90
2018-12-30T06:17:25.001Z,16.23
2018-12-30T06:19:54.145Z,15.07
2018-12-30T06:22:23.312Z,9.83
2018-12-30T06:24:52.467Z,12.67
2018-12-30T06:27:21.697Z,14.80
2018-12-30T06:29:50.911Z,19.17
2018-12-30T06:32:20.055Z,15.43
2018-12-30T06:34:49.248Z,13.60
2018-12-30T06:37:18.392Z,12.30
2018-12-30T06:39:47.553Z,13.93
2018-12-30T06:42:16.699Z,14.23
2018-12-30T06:44:45.839Z,15.67
2018-12-30T06:47:15.032Z,17.70
2018-12-30T06:49:44.215Z,15.67
2018-12-30T06:52:13.355Z,17.27
2018-12-30T06:54:42.510Z,16.90
2018-12-30T06:57:11.650Z,12.40
2018-12-30T06:59:40.751Z,13.77
2018-12-30T07:02:09.940Z,15.43
2018-12-30T07:04:39.119Z,9.97
2018-12-30T07:07:08.313Z,10.53
2018-12-30T07:09:37.551Z,12.70
2018-12-30T07:12:06.677Z,17.20
2018-12-30T07:14:35.916Z,15.73
2018-12-30T07:17:05.180Z,13.80
2018-12-30T07:19:34.310Z,13.50
2018-12-30T07:22:03.437Z,21.23
2018-12-30T07:24:32.580Z,10.57
2018-12-30T07:27:01.696Z,14.53
2018-12-30T07:29:30.829Z,13.43
2018-12-30T07:31:59.990Z,18.13
2018-12-30T07:34:29.153Z,19.07
2018-12-30T07:36:58.317Z,12.27
2018-12-30T07:39:27.559Z,17.40
2018-12-30T07:41:56.728Z,17.13
2018-12-30T07:44:25.889Z,19.90
2018-12-30T07:46:55.128Z,16.30
2018-12-30T07:49:24.358Z,16.33
2018-12-30T07:51:53.534Z,15.90
2018-12-30T07:54:22.747Z,21.87
2018-12-30T07:56:51.961Z,14.83
2018-12-30T07:59:21.126Z,20.40
2018-12-30T08:01:50.259Z,14.53
2018-12-30T08:04:19.486Z,14.60
2018-12-30T08:06:48.680Z,17.43
2018-12-30T08:09:17.840Z,18.67
2018-12-30T08:11:46.978Z,16.00
2018-12-30T08:14:16.129Z,13.20
2018-12-30T08:16:45.315Z,15.50
2018-12-30T08:19:14.504Z,18.60
2018-12-30T08:21:43.668Z,14.83
2018-12-30T08:24:12.871Z,17.80
2018-12-30T08:26:42.105Z,12.67
2018-12-30T08:29:11.213Z,15.73
2018-12-30T08:31:40.384Z,21.67
2018-12-30T08:34:09.554Z,18.70
2018-12-30T08:36:38.820Z,11.43
2018-12-30T08:39:08.828Z,15.90
2018-12-30T08:41:38.000Z,18.93
2018-12-30T08:44:07.231Z,15.07
2018-12-30T08:46:37.425Z,12.50
2018-12-30T08:49:06.631Z,13.83
2018-12-30T08:51:35.815Z,10.50
2018-12-30T08:54:05.031Z,16.43
2018-12-30T08:56:34.160Z,16.27
2018-12-30T08:59:03.342Z,15.23
2018-12-30T09:01:32.464Z,14.80
2018-12-30T09:04:01.734Z,18.57
2018-12-30T09:06:30.905Z,22.43
2018-12-30T09:09:00.022Z,11.43
2018-12-30T09:11:29.247Z,11.77
2018-12-30T09:13:58.425Z,11.40
2018-12-30T09:16:27.563Z,13.03
2018-12-30T09:18:56.757Z,17.80
2018-12-30T09:21:25.938Z,13.53
2018-12-30T09:23:55.307Z,9.40
2018-12-30T09:26:24.493Z,17.57
2018-12-30T09:28:53.734Z,14.70
2018-12-30T09:31:22.881Z,14.93
2018-12-30T09:33:53.483Z,12.03
2018-12-30T09:36:22.578Z,12.53
2018-12-30T09:38:51.740Z,11.23
2018-12-30T09:41:20.931Z,12.47
2018-12-30T09:43:50.149Z,10.40
2018-12-30T09:46:19.341Z,11.70
2018-12-30T09:48:48.495Z,12.50
2018-12-30T09:51:17.692Z,13.73
2018-12-30T09:53:46.873Z,12.37
2018-12-30T09:56:16.033Z,12.63
2018-12-30T09:58:45.256Z,13.43
2018-12-30T10:01:14.448Z,11.07
2018-12-30T10:03:43.673Z,10.27
2018-12-30T10:06:12.889Z,11.90
2018-12-30T10:08:42.080Z,11.03
2018-12-30T10:11:11.269Z,9.53
2018-12-30T10:13:40.540Z,13.53
2018-12-30T10:16:09.687Z,8.87
2018-12-30T10:18:38.906Z,12.20
2018-12-30T10:21:08.118Z,12.73
2018-12-30T10:23:37.314Z,14.10
2018-12-30T10:26:06.513Z,9.90
2018-12-30T10:28:35.723Z,18.53
2018-12-30T10:31:05.035Z,8.90
2018-12-30T10:33:34.288Z,14.03
2018-12-30T10:36:03.442Z,13.50
2018-12-30T10:38:32.712Z,10.20
2018-12-30T10:41:01.925Z,12.03
2018-12-30T10:43:31.114Z,13.77
2018-12-30T10:46:00.300Z,12.83
2018-12-30T10:48:29.510Z,9.43
2018-12-30T10:50:58.675Z,10.83
2018-12-30T10:53:27.878Z,7.90
2018-12-30T10:55:57.085Z,9.23
2018-12-30T10:58:26.335Z,12.07
2018-12-30T11:00:55.675Z,12.20
2018-12-30T11:03:24.904Z,13.63
2018-12-30T11:05:54.340Z,13.40
2018-12-30T11:08:23.598Z,10.00
2018-12-30T11:10:52.861Z,11.63
2018-12-30T11:13:22.080Z,11.00
2018-12-30T11:15:51.308Z,10.27
2018-12-30T11:18:20.469Z,12.00
2018-12-30T11:20:49.733Z,11.73
2018-12-30T11:23:19.020Z,11.30
2018-12-30T11:25:48.261Z,7.13
2018-12-30T11:28:17.428Z,9.67
2018-12-30T11:30:46.603Z,9.73
2018-12-30T11:33:15.926Z,12.17
2018-12-30T11:35:45.102Z,10.07
2018-12-30T11:38:14.309Z,9.63
2018-12-30T11:40:43.480Z,12.37
2018-12-30T11:43:12.715Z,11.70
2018-12-30T11:45:41.948Z,12.30
2018-12-30T11:48:11.169Z,6.33
2018-12-30T11:50:40.475Z,8.37
2018-12-30T11:53:09.732Z,11.77
2018-12-30T11:55:38.984Z,11.33
2018-12-30T11:58:08.145Z,7.67
2018-12-30T12:00:37.343Z,7.93
2018-12-30T12:03:06.511Z,10.33
2018-12-30T12:05:35.768Z,8.57
2018-12-30T12:08:05.035Z,9.93
2018-12-30T12:10:34.232Z,6.63
2018-12-30T12:13:03.661Z,10.07
2018-12-30T12:15:32.969Z,6.63
2018-12-30T12:18:02.198Z,12.13
2018-12-30T12:20:31.387Z,9.83
2018-12-30T12:23:00.589Z,8.07
2018-12-30T12:25:29.787Z,7.77
2018-12-30T12:27:58.950Z,8.43
2018-12-30T12:30:28.210Z,6.07
2018-12-30T12:32:57.478Z,7.70
2018-12-30T12:35:26.630Z,9.20
2018-12-30T12:37:55.865Z,8.20
2018-12-30T12:40:25.154Z,9.77
2018-12-30T12:42:54.428Z,9.27
2018-12-30T12:45:24.546Z,9.47
2018-12-30T12:47:53.794Z,10.83
2018-12-30T12:50:23.062Z,9.60
2018-12-30T12:52:52.185Z,10.70
2018-12-30T12:55:21.369Z,8.83
2018-12-30T12:57:50.584Z,9.30
2018-12-30T13:00:19.789Z,10.20
2018-12-30T13:02:49.077Z,6.43
2018-12-30T13:05:20.300Z,8.47
2018-12-30T13:07:49.490Z,7.47
2018-12-30T13:10:18.652Z,6.37
2018-12-30T13:12:47.864Z,12.37
2018-12-30T13:15:17.049Z,10.40
2018-12-30T13:17:46.258Z,8.17
2018-12-30T13:20:15.695Z,8.60
2018-12-30T13:22:44.950Z,10.33
2018-12-30T13:25:14.229Z,8.57
2018-12-30T13:27:43.428Z,7.90
2018-12-30T13:30:12.678Z,7.40
2018-12-30T13:32:41.859Z,10.47
2018-12-30T13:35:11.169Z,8.57
2018-12-30T13:37:40.442Z,11.50
2018-12-30T13:40:09.684Z,7.83
2018-12-30T13:42:38.972Z,11.20
2018-12-30T13:45:08.252Z,9.63
2018-12-30T13:47:37.485Z,6.67
2018-12-30T13:50:06.953Z,11.50
2018-12-30T13:52:36.174Z,9.50
2018-12-30T13:55:05.582Z,7.53
2018-12-30T13:57:34.810Z,7.87
2018-12-30T14:00:04.045Z,12.40
2018-12-30T14:02:33.360Z,9.10
2018-12-30T14:05:02.545Z,10.47
2018-12-30T14:07:32.004Z,9.90
2018-12-30T14:10:01.287Z,10.93
2018-12-30T14:12:30.490Z,9.17
2018-12-30T14:14:59.733Z,10.37
2018-12-30T14:17:29.013Z,9.97
2018-12-30T14:19:58.225Z,8.70
2018-12-30T14:22:27.504Z,11.47
2018-12-30T14:24:56.703Z,7.07
2018-12-30T14:27:25.909Z,10.07
2018-12-30T14:29:55.242Z,10.53
2018-12-30T14:32:24.448Z,9.60
2018-12-30T14:34:54.281Z,14.13
2018-12-30T14:37:23.853Z,10.90
2018-12-30T14:39:53.264Z,5.83
2018-12-30T14:42:22.470Z,6.47
2018-12-30T14:44:51.795Z,8.13
2018-12-30T14:47:21.059Z,10.47
2018-12-30T14:49:50.288Z,9.37
2018-12-30T14:52:19.518Z,8.33
2018-12-30T14:54:48.721Z,12.87
2018-12-30T14:57:17.924Z,11.03
2018-12-30T14:59:47.161Z,9.80
2018-12-30T15:02:16.329Z,11.33
2018-12-30T15:04:45.594Z,8.33
2018-12-30T15:07:14.868Z,9.70
2018-12-30T15:09:44.109Z,9.30
2018-12-30T15:12:13.345Z,5.53
2018-12-30T15:14:42.490Z,11.37
2018-12-30T15:17:11.726Z,8.43
2018-12-30T15:19:40.953Z,8.07
2018-12-30T15:22:10.178Z,8.83
2018-12-30T15:24:41.096Z,9.03
2018-12-30T15:27:10.312Z,10.10
2018-12-30T15:29:39.482Z,9.53
2018-12-30T15:32:08.685Z,9.73
2018-12-30T15:34:37.933Z,8.30
2018-12-30T15:37:07.152Z,10.37
2018-12-30T15:39:36.353Z,7.30
2018-12-30T15:42:05.622Z,10.93
2018-12-30T15:44:34.877Z,11.30
2018-12-30T15:47:04.104Z,10.73
2018-12-30T15:49:33.479Z,13.03
2018-12-30T15:52:02.695Z,8.67
2018-12-30T15:54:32.019Z,13.67
2018-12-30T15:57:01.364Z,14.63
2018-12-30T15:59:30.574Z,8.23
2018-12-30T16:01:59.808Z,10.23
2018-12-30T16:04:29.063Z,11.47
2018-12-30T16:06:58.237Z,15.33
2018-12-30T16:09:27.465Z,10.13
2018-12-30T16:11:56.701Z,9.27
2018-12-30T16:14:25.912Z,14.87
2018-12-30T16:16:55.511Z,13.70
2018-12-30T16:19:24.728Z,11.67
2018-12-30T16:21:54.081Z,13.47
2018-12-30T16:24:23.292Z,12.40
2018-12-30T16:26:52.538Z,9.57
2018-12-30T16:29:21.816Z,11.97
2018-12-30T16:31:50.988Z,12.40
2018-12-30T16:34:20.255Z,14.67
2018-12-30T16:36:49.504Z,14.50
2018-12-30T16:39:18.784Z,13.90
2018-12-30T16:41:48.027Z,15.23
2018-12-30T16:44:17.233Z,13.80
2018-12-30T16:46:46.485Z,16.17
2018-12-30T16:49:15.677Z,11.27
2018-12-30T16:51:45.449Z,16.43
2018-12-30T16:54:14.697Z,13.50
2018-12-30T16:56:43.905Z,17.10
2018-12-30T16:59:13.146Z,15.10
2018-12-30T17:01:42.392Z,15.40
2018-12-30T17:04:11.689Z,17.67
2018-12-30T17:06:40.931Z,15.20
2018-12-30T17:09:10.291Z,14.17
2018-12-30T17:11:39.521Z,15.67
2018-12-30T17:14:08.819Z,15.20
2018-12-30T17:16:38.134Z,18.00
2018-12-30T17:19:07.440Z,21.50
2018-12-30T17:21:36.753Z,19.53
2018-12-30T17:24:06.017Z,17.90
2018-12-30T17:26:35.318Z,20.43
2018-12-30T17:29:04.604Z,17.80
2018-12-30T17:31:33.864Z,19.33
2018-12-30T17:34:03.083Z,18.87
2018-12-30T17:36:32.340Z,18.00
2018-12-30T17:39:01.569Z,21.27
2018-12-30T17:41:30.894Z,19.50
2018-12-30T17:44:00.153Z,21.50
2018-12-30T17:46:29.367Z,18.40
2018-12-30T17:48:58.664Z,23.47
2018-12-30T17:51:27.972Z,23.20
2018-12-30T17:53:57.156Z,21.20
2018-12-30T17:56:26.356Z,28.17
2018-12-30T17:58:55.725Z,28.67
2018-12-30T18:01:25.079Z,22.33
2018-12-30T18:03:54.403Z,26.87
2018-12-30T18:06:23.600Z,22.70
2018-12-30T18:08:53.009Z,25.93
2018-12-30T18:11:22.251Z,25.40
2018-12-30T18:13:51.468Z,26.40
2018-12-30T18:16:20.746Z,26.70
2018-12-30T18:18:50.006Z,26.17
2018-12-30T18:21:19.280Z,28.57
2018-12-30T18:23:48.564Z,25.03
2018-12-30T18:26:17.830Z,28.93
2018-12-30T18:28:47.108Z,26.50
2018-12-30T18:31:16.373Z,26.07
2018-12-30T18:33:45.585Z,25.53
2018-12-30T18:36:14.866Z,26.13
2018-12-30T18:38:44.149Z,29.97
2018-12-30T18:41:13.388Z,28.90
2018-12-30T18:43:42.619Z,27.47
2018-12-30T18:46:11.835Z,28.87
2018-12-30T18:48:41.058Z,27.60
2018-12-30T18:51:10.316Z,32.00
2018-12-30T18:53:39.655Z,31.70
2018-12-30T18:56:08.834Z,30.33
2018-12-30T18:58:38.025Z,29.50
2018-12-30T19:01:07.293Z,30.27
2018-12-30T19:03:36.629Z,29.60
2018-12-30T19:06:05.848Z,28.20
2018-12-30T19:08:35.029Z,27.83
2018-12-30T19:11:04.251Z,30.07
2018-12-30T19:13:33.435Z,26.73
2018-12-30T19:16:02.716Z,30.23
2018-12-30T19:18:31.958Z,33.23
2018-12-30T19:21:01.192Z,32.97
2018-12-30T19:23:30.487Z,30.93
2018-12-30T19:26:01.154Z,28.23
2018-12-30T19:28:30.682Z,32.57
2018-12-30T19:30:59.949Z,31.20
2018-12-30T19:33:29.186Z,29.73
2018-12-30T19:35:58.491Z,28.63
2018-12-30T19:38:27.689Z,30.23
2018-12-30T19:40:57.019Z,29.37
2018-12-30T19:43:26.318Z,33.00
2018-12-30T19:45:55.715Z,32.97
2018-12-30T19:48:24.987Z,34.93
2018-12-30T19:50:54.348Z,34.67
2018-12-30T19:53:23.651Z,35.17
2018-12-30T19:55:53.111Z,32.80
2018-12-30T19:58:22.250Z,32.17
2018-12-30T20:00:51.430Z,30.97
2018-12-30T20:03:20.719Z,35.87
2018-12-30T20:05:49.888Z,33.00
2018-12-30T20:08:19.113Z,34.73
2018-12-30T20:10:48.331Z,38.13
2018-12-30T20:13:17.503Z,34.93
2018-12-30T20:15:46.717Z,32.50
2018-12-30T20:18:15.994Z,35.37
2018-12-30T20:20:45.239Z,34.60
2018-12-30T20:23:14.554Z,32.73
2018-12-30T20:25:43.817Z,36.47
2018-12-30T20:28:13.071Z,39.50
2018-12-30T20:30:42.325Z,37.90
2018-12-30T20:33:11.643Z,37.00
2018-12-30T20:35:40.881Z,36.33
2018-12-30T20:38:10.140Z,37.77
2018-12-30T20:40:39.459Z,43.53
2018-12-30T20:43:08.700Z,38.67
2018-12-30T20:45:37.961Z,37.20
2018-12-30T20:48:07.236Z,38.20
2018-12-30T20:50:36.514Z,39.70
2018-12-30T20:53:05.702Z,40.83
2018-12-30T20:55:34.932Z,38.57
2018-12-30T20:58:04.143Z,40.83
2018-12-30T21:00:33.340Z,39.63
2018-12-30T21:03:02.576Z,36.57
2018-12-30T21:05:31.823Z,39.57
2018-12-30T21:08:01.066Z,38.77
2018-12-30T21:10:30.365Z,37.73
2018-12-30T21:12:59.665Z,36.90
2018-12-30T21:15:28.915Z,37.43
2018-12-30T21:17:58.124Z,36.77
2018-12-30T21:20:27.397Z,37.23
2018-12-30T21:22:56.647Z,36.90
2018-12-30T21:25:25.864Z,38.90
2018-12-30T21:27:55.219Z,37.07
2018-12-30T21:30:24.493Z,33.80
2018-12-30T21:32:53.781Z,36.10
2018-12-30T21:35:22.954Z,36.83
2018-12-30T21:37:52.182Z,36.57
2018-12-30T21:40:21.452Z,38.10
2018-12-30T21:42:50.724Z,38.73
2018-12-30T21:45:19.934Z,39.27
2018-12-30T21:47:49.124Z,36.30
2018-12-30T21:50:18.446Z,36.60
2018-12-30T21:52:47.653Z,36.70
2018-12-30T21:55:16.941Z,38.10
2018-12-30T21:57:46.226Z,32.67
2018-12-30T22:00:15.533Z,36.27
2018-12-30T22:02:44.729Z,38.30
2018-12-30T22:05:14.062Z,35.00
2018-12-30T22:07:43.354Z,35.83
2018-12-30T22:10:17.222Z,36.77
2018-12-30T22:12:43.515Z,35.60
2018-12-30T22:15:12.801Z,33.80
2018-12-30T22:17:42.075Z,33.77
2018-12-30T22:20:11.304Z,34.83
2018-12-30T22:22:40.562Z,35.37
2018-12-30T22:25:09.849Z,32.17
2018-12-30T22:27:39.085Z,31.30
2018-12-30T22:30:08.290Z,31.27
2018-12-30T22:32:37.556Z,31.70
2018-12-30T22:35:07.134Z,31.77
2018-12-30T22:37:36.345Z,29.30
2018-12-30T22:40:06.277Z,30.67
2018-12-30T22:42:35.457Z,31.67
2018-12-30T22:45:04.958Z,31.87
2018-12-30T22:47:34.134Z,29.93
2018-12-30T22:50:03.465Z,29.37
2018-12-30T22:52:32.823Z,28.33
2018-12-30T22:55:02.088Z,29.10
2018-12-30T22:57:31.391Z,27.10
2018-12-30T23:00:00.584Z,27.50
2018-12-30T23:02:29.904Z,26.47
2018-12-30T23:04:59.149Z,27.87
2018-12-30T23:07:28.443Z,25.97
2018-12-30T23:09:57.682Z,25.17
2018-12-30T23:12:26.893Z,24.30
2018-12-30T23:14:56.339Z,24.43
2018-12-30T23:17:25.528Z,23.87
2018-12-30T23:19:55.045Z,24.37
2018-12-30T23:22:24.277Z,23.73
2018-12-30T23:24:53.509Z,22.80
2018-12-30T23:27:22.736Z,24.13
2018-12-30T23:29:52.001Z,23.97
2018-12-30T23:32:21.172Z,24.30
2018-12-30T23:34:50.384Z,22.43
2018-12-30T23:37:19.618Z,22.43
2018-12-30T23:39:48.903Z,24.10
2018-12-30T23:42:18.086Z,22.37
2018-12-30T23:44:47.298Z,22.20
2018-12-30T23:47:16.627Z,21.83
2018-12-30T23:49:45.882Z,21.30
2018-12-30T23:52:15.081Z,20.67
2018-12-30T23:54:44.301Z,20.50
2018-12-30T23:57:13.630Z,20.53
2018-12-30T23:59:42.914Z,21.40
